Strona główna
METAR-TAF:

METAR-TAF

Lotnisko :

Katowice, Polska

Port lotniczy Katowice-Pyrzowice

Szerokość geograficzna: 50-28-27N, Długość geograficzna: 019-04-48E, wysokość: 284 m

Aktualna obserwacja pogody

Raport powstał 37 minut temu, godzina 04:30 UTC
Wiatr 4 kt od południowy zachód, zmienny między południowo-południowy zachód i zachód
Temperatura 18°C
Wilgotność 77%
Ciśnienie 1011 hPa
Widzialność 10 km lub więcej
Brak chmur poniżej 1500 m i brak chmur cumulonimbus

METAR: EPKT 260430Z 23004KT 200V260 CAVOK 18/14 Q1011

czas: 07:07 (05:07 UTC)


TAF: brakujący

Obserwacja i prognoza pogody dla ponad 4000 lotnisk (raport METAR i TAF).

Dostępne stacje oznaczono żółtymi i czerwonymi punktami na mapie.

Najedź kursorem aby zobaczyć nazwę stacji.

Kliknij aby zobaczyć obserwacje i prognozy pogody.

Aby zmienić mapę: kliknij na zielony przycisk z czarnym krzyżykiem, aby powiększyć; na zielony przycisk z myślnikiem, aby pomniejszyć; na zielone strzałki, aby przejść do map sąsiednich.


METAR-TAF: